Impacts TAF Board INFO
FOR SITUATIONAL AWARENESS. NOT TO BE USED FOR FLIGHT PLANNING PURPOSES.
IDs:

KPDX - Portland Intl Arpt, OR, US

Issued at 0854 UTC 19 Jan 2018
Updated at 1121 UTC 19 Jan 2018
Potential Impact None Slight Moderate High
Time1118Z 19/12Z 19/13Z 19/14Z 19/15Z 19/16Z 19/17Z 19/18Z 19/19Z 19/20Z 19/21Z 19/22Z 19/23Z 20/00Z>>
Type OBS PRVL PRVL PRVL PRVL PRVL PRVL PRVL PRVL PRVL PRVL PRVL PRVL PRVL
VIS 10 >6 >6 >6 >6 >6 >6 >6 >6 >6 >6 >6 >6 >6
CIG 76 35 35 35 35 35 35 50 50 50 50 50 50 50
Cover BKN OVC OVC OVC OVC OVC OVC OVC OVC OVC OVC OVC OVC OVC
FltCat VFR VFR VFR VFR VFR VFR VFR VFR VFR VFR VFR VFR VFR VFR
WX -- -SHRA -SHRA -SHRA -SHRA -SHRA -SHRA -RA -RA -RA -RA -RA -RA -RA
WDir 170 150 150 150 150 150 150 190 190 190 190 190 190 190
WSpd 8 10 10 10 10 10 10 12 12 12 12 12 12 12
WGst -- -- -- -- -- -- -- -- -- -- -- -- -- --

Raw TAF
KPDX 190854Z 1909/2006 10010KT P6SM -SHRA SCT020 BKN050 OVC070
  FM191200 15010KT P6SM -SHRA BKN035 OVC050
  FM191800 19012KT P6SM -RA OVC050
  FM200200 18010KT P6SM -RA OVC020


Raw METAR
KPDX 191118Z 17008KT 10SM SCT017 BKN076 06/03 A2991 RMK AO2 T00560033
KPDX 191053Z 19013KT 10SM BKN017 OVC027 06/03 A2990 RMK AO2 SLP125 T00560033
KPDX 191017Z 12007KT 10SM BKN019 OVC026 06/04 A2991 RMK AO2 T00560044
KPDX 190953Z 09007KT 10SM SCT019 SCT026 OVC035 05/04 A2990 RMK AO2 SLP123 T00500039
KPDX 190853Z 10010KT 10SM FEW029 BKN047 OVC070 05/04 A2990 RMK AO2 RAB0759E10B35E52 SLP123 P0000 60005 T00500039 53004

METAR Board
Radar Display
Forecast Discussion

FOR SITUATIONAL AWARENESS. NOT TO BE USED FOR FLIGHT PLANNING PURPOSES.